sensor_id;sensor_type;location;lat;lon;timestamp;P1;durP1;ratioP1;P2;durP2;ratioP2
17441;SDS011;8838;50.144;8.176;2022-10-15T00:01:37;21.85;;;3.83;;
17441;SDS011;8838;50.144;8.176;2022-10-15T00:04:06;6.15;;;3.63;;
17441;SDS011;8838;50.144;8.176;2022-10-15T00:06:33;6.10;;;3.15;;
17441;SDS011;8838;50.144;8.176;2022-10-15T00:09:00;6.93;;;3.65;;
17441;SDS011;8838;50.144;8.176;2022-10-15T00:11:27;6.93;;;3.33;;
17441;SDS011;8838;50.144;8.176;2022-10-15T00:13:56;6.65;;;3.65;;
17441;SDS011;8838;50.144;8.176;2022-10-15T00:16:26;16.40;;;4.65;;
17441;SDS011;8838;50.144;8.176;2022-10-15T00:18:54;61.00;;;6.13;;
17441;SDS011;8838;50.144;8.176;2022-10-15T00:21:24;9.60;;;4.15;;
17441;SDS011;8838;50.144;8.176;2022-10-15T00:23:51;9.55;;;4.03;;
17441;SDS011;8838;50.144;8.176;2022-10-15T00:26:19;6.65;;;3.60;;
17441;SDS011;8838;50.144;8.176;2022-10-15T00:28:47;6.35;;;3.75;;
17441;SDS011;8838;50.144;8.176;2022-10-15T00:31:16;6.25;;;4.00;;
17441;SDS011;8838;50.144;8.176;2022-10-15T00:33:45;5.07;;;3.28;;
17441;SDS011;8838;50.144;8.176;2022-10-15T00:36:14;7.53;;;3.78;;
17441;SDS011;8838;50.144;8.176;2022-10-15T00:38:44;6.93;;;4.10;;
17441;SDS011;8838;50.144;8.176;2022-10-15T00:41:12;6.50;;;3.75;;
17441;SDS011;8838;50.144;8.176;2022-10-15T00:43:42;8.70;;;3.70;;
17441;SDS011;8838;50.144;8.176;2022-10-15T00:46:21;20.27;;;3.80;;
17441;SDS011;8838;50.144;8.176;2022-10-15T00:48:52;10.73;;;3.95;;
17441;SDS011;8838;50.144;8.176;2022-10-15T00:51:22;9.40;;;3.55;;
17441;SDS011;8838;50.144;8.176;2022-10-15T00:53:54;12.43;;;3.45;;
17441;SDS011;8838;50.144;8.176;2022-10-15T00:56:21;6.60;;;3.50;;
17441;SDS011;8838;50.144;8.176;2022-10-15T00:58:51;9.88;;;3.40;;
17441;SDS011;8838;50.144;8.176;2022-10-15T01:01:20;4.63;;;3.17;;
17441;SDS011;8838;50.144;8.176;2022-10-15T01:03:49;5.25;;;2.80;;
17441;SDS011;8838;50.144;8.176;2022-10-15T01:06:17;8.18;;;2.90;;
17441;SDS011;8838;50.144;8.176;2022-10-15T01:08:44;7.43;;;3.08;;
17441;SDS011;8838;50.144;8.176;2022-10-15T01:11:19;5.80;;;2.97;;
17441;SDS011;8838;50.144;8.176;2022-10-15T01:14:06;19.73;;;3.85;;
17441;SDS011;8838;50.144;8.176;2022-10-15T01:16:41;15.57;;;4.55;;
17441;SDS011;8838;50.144;8.176;2022-10-15T01:19:16;45.20;;;5.15;;
17441;SDS011;8838;50.144;8.176;2022-10-15T01:21:58;41.35;;;4.38;;
17441;SDS011;8838;50.144;8.176;2022-10-15T01:24:36;95.88;;;5.72;;
17441;SDS011;8838;50.144;8.176;2022-10-15T01:27:23;11.15;;;4.00;;
17441;SDS011;8838;50.144;8.176;2022-10-15T01:33:05;14.63;;;3.05;;
17441;SDS011;8838;50.144;8.176;2022-10-15T01:35:45;15.32;;;2.38;;
17441;SDS011;8838;50.144;8.176;2022-10-15T01:38:18;21.05;;;3.00;;
17441;SDS011;8838;50.144;8.176;2022-10-15T01:40:56;11.48;;;3.00;;
17441;SDS011;8838;50.144;8.176;2022-10-15T01:43:26;9.30;;;2.78;;
17441;SDS011;8838;50.144;8.176;2022-10-15T01:46:00;7.65;;;2.47;;
17441;SDS011;8838;50.144;8.176;2022-10-15T01:48:31;5.80;;;2.58;;
17441;SDS011;8838;50.144;8.176;2022-10-15T01:51:04;33.60;;;3.55;;
17441;SDS011;8838;50.144;8.176;2022-10-15T01:53:32;7.22;;;2.70;;
17441;SDS011;8838;50.144;8.176;2022-10-15T01:56:02;12.65;;;2.58;;
17441;SDS011;8838;50.144;8.176;2022-10-15T01:58:31;5.03;;;2.72;;
17441;SDS011;8838;50.144;8.176;2022-10-15T02:01:03;4.60;;;2.63;;
17441;SDS011;8838;50.144;8.176;2022-10-15T02:03:41;6.22;;;2.72;;
17441;SDS011;8838;50.144;8.176;2022-10-15T02:06:09;6.45;;;2.83;;
17441;SDS011;8838;50.144;8.176;2022-10-15T02:08:42;12.32;;;1.75;;
17441;SDS011;8838;50.144;8.176;2022-10-15T02:11:16;2.47;;;1.65;;
17441;SDS011;8838;50.144;8.176;2022-10-15T02:13:47;2.78;;;1.50;;
17441;SDS011;8838;50.144;8.176;2022-10-15T02:16:20;2.15;;;1.50;;
17441;SDS011;8838;50.144;8.176;2022-10-15T02:18:50;3.03;;;1.38;;
17441;SDS011;8838;50.144;8.176;2022-10-15T02:21:26;2.83;;;1.80;;
17441;SDS011;8838;50.144;8.176;2022-10-15T02:23:57;2.78;;;1.42;;
17441;SDS011;8838;50.144;8.176;2022-10-15T02:26:30;1.77;;;1.33;;
17441;SDS011;8838;50.144;8.176;2022-10-15T02:28:58;3.65;;;1.90;;
17441;SDS011;8838;50.144;8.176;2022-10-15T02:31:29;2.63;;;1.70;;
17441;SDS011;8838;50.144;8.176;2022-10-15T02:33:59;4.47;;;2.33;;
17441;SDS011;8838;50.144;8.176;2022-10-15T02:36:33;4.00;;;2.50;;
17441;SDS011;8838;50.144;8.176;2022-10-15T02:39:00;4.75;;;2.60;;
17441;SDS011;8838;50.144;8.176;2022-10-15T02:41:30;4.32;;;2.60;;
17441;SDS011;8838;50.144;8.176;2022-10-15T02:44:00;3.45;;;2.53;;
17441;SDS011;8838;50.144;8.176;2022-10-15T02:46:29;3.88;;;2.78;;
17441;SDS011;8838;50.144;8.176;2022-10-15T02:48:56;5.55;;;2.97;;
17441;SDS011;8838;50.144;8.176;2022-10-15T02:51:23;4.32;;;2.90;;
17441;SDS011;8838;50.144;8.176;2022-10-15T02:53:50;6.53;;;2.83;;
17441;SDS011;8838;50.144;8.176;2022-10-15T02:56:16;4.70;;;2.90;;
17441;SDS011;8838;50.144;8.176;2022-10-15T02:58:43;3.38;;;2.50;;
17441;SDS011;8838;50.144;8.176;2022-10-15T03:01:10;2.55;;;2.30;;
17441;SDS011;8838;50.144;8.176;2022-10-15T03:03:38;7.07;;;3.00;;
17441;SDS011;8838;50.144;8.176;2022-10-15T03:06:05;5.88;;;2.67;;
17441;SDS011;8838;50.144;8.176;2022-10-15T03:08:32;3.33;;;2.20;;
17441;SDS011;8838;50.144;8.176;2022-10-15T03:10:59;3.35;;;2.20;;
17441;SDS011;8838;50.144;8.176;2022-10-15T03:13:26;4.15;;;2.25;;
17441;SDS011;8838;50.144;8.176;2022-10-15T03:15:53;2.40;;;2.20;;
17441;SDS011;8838;50.144;8.176;2022-10-15T03:18:21;3.85;;;1.73;;
17441;SDS011;8838;50.144;8.176;2022-10-15T03:20:53;3.38;;;1.90;;
17441;SDS011;8838;50.144;8.176;2022-10-15T03:23:20;1.35;;;1.25;;
17441;SDS011;8838;50.144;8.176;2022-10-15T03:25:47;4.55;;;1.45;;
17441;SDS011;8838;50.144;8.176;2022-10-15T03:28:14;1.77;;;1.10;;
17441;SDS011;8838;50.144;8.176;2022-10-15T03:30:41;3.55;;;1.23;;
17441;SDS011;8838;50.144;8.176;2022-10-15T03:33:08;1.13;;;1.02;;
17441;SDS011;8838;50.144;8.176;2022-10-15T03:35:35;1.30;;;1.20;;
17441;SDS011;8838;50.144;8.176;2022-10-15T03:38:04;1.70;;;1.45;;
17441;SDS011;8838;50.144;8.176;2022-10-15T03:40:31;2.40;;;1.90;;
17441;SDS011;8838;50.144;8.176;2022-10-15T03:42:58;2.67;;;1.73;;
17441;SDS011;8838;50.144;8.176;2022-10-15T03:45:25;3.38;;;1.48;;
17441;SDS011;8838;50.144;8.176;2022-10-15T03:47:52;1.73;;;1.63;;
17441;SDS011;8838;50.144;8.176;2022-10-15T03:50:19;2.45;;;1.60;;
17441;SDS011;8838;50.144;8.176;2022-10-15T03:52:46;4.22;;;2.17;;
17441;SDS011;8838;50.144;8.176;2022-10-15T03:55:14;2.20;;;2.00;;
17441;SDS011;8838;50.144;8.176;2022-10-15T03:57:42;2.63;;;2.38;;
17441;SDS011;8838;50.144;8.176;2022-10-15T04:00:11;4.78;;;2.20;;
17441;SDS011;8838;50.144;8.176;2022-10-15T04:02:39;3.33;;;2.65;;
17441;SDS011;8838;50.144;8.176;2022-10-15T04:05:06;5.53;;;2.90;;
17441;SDS011;8838;50.144;8.176;2022-10-15T04:07:32;4.00;;;2.50;;
17441;SDS011;8838;50.144;8.176;2022-10-15T04:09:59;3.58;;;2.60;;
17441;SDS011;8838;50.144;8.176;2022-10-15T04:12:27;4.32;;;3.22;;
17441;SDS011;8838;50.144;8.176;2022-10-15T04:14:54;5.25;;;3.15;;
17441;SDS011;8838;50.144;8.176;2022-10-15T04:17:21;8.35;;;3.00;;
17441;SDS011;8838;50.144;8.176;2022-10-15T04:19:48;3.65;;;2.90;;
17441;SDS011;8838;50.144;8.176;2022-10-15T04:22:15;5.68;;;3.28;;
17441;SDS011;8838;50.144;8.176;2022-10-15T04:24:42;4.32;;;3.05;;
17441;SDS011;8838;50.144;8.176;2022-10-15T04:27:09;5.25;;;3.47;;
17441;SDS011;8838;50.144;8.176;2022-10-15T04:29:37;5.88;;;3.20;;
17441;SDS011;8838;50.144;8.176;2022-10-15T04:32:04;5.30;;;3.35;;
17441;SDS011;8838;50.144;8.176;2022-10-15T04:34:31;4.78;;;3.70;;
17441;SDS011;8838;50.144;8.176;2022-10-15T04:36:58;7.22;;;4.30;;
17441;SDS011;8838;50.144;8.176;2022-10-15T04:39:24;6.55;;;4.80;;
17441;SDS011;8838;50.144;8.176;2022-10-15T04:41:51;5.70;;;4.05;;
17441;SDS011;8838;50.144;8.176;2022-10-15T04:44:18;5.05;;;3.78;;
17441;SDS011;8838;50.144;8.176;2022-10-15T04:46:46;6.22;;;4.43;;
17441;SDS011;8838;50.144;8.176;2022-10-15T04:49:13;7.43;;;4.40;;
17441;SDS011;8838;50.144;8.176;2022-10-15T04:51:40;8.10;;;5.65;;
17441;SDS011;8838;50.144;8.176;2022-10-15T04:54:07;6.85;;;5.32;;
17441;SDS011;8838;50.144;8.176;2022-10-15T04:56:34;8.48;;;5.47;;
17441;SDS011;8838;50.144;8.176;2022-10-15T04:59:05;6.68;;;4.85;;
17441;SDS011;8838;50.144;8.176;2022-10-15T05:01:32;7.20;;;4.63;;
17441;SDS011;8838;50.144;8.176;2022-10-15T05:04:00;5.07;;;3.83;;
17441;SDS011;8838;50.144;8.176;2022-10-15T05:06:27;7.00;;;4.78;;
17441;SDS011;8838;50.144;8.176;2022-10-15T05:08:54;6.25;;;4.20;;
17441;SDS011;8838;50.144;8.176;2022-10-15T05:11:22;6.35;;;4.30;;
17441;SDS011;8838;50.144;8.176;2022-10-15T05:13:50;6.05;;;4.30;;
17441;SDS011;8838;50.144;8.176;2022-10-15T05:16:20;9.35;;;4.22;;
17441;SDS011;8838;50.144;8.176;2022-10-15T05:18:49;6.72;;;3.35;;
17441;SDS011;8838;50.144;8.176;2022-10-15T05:21:18;3.85;;;2.83;;
17441;SDS011;8838;50.144;8.176;2022-10-15T05:23:45;4.72;;;2.38;;
17441;SDS011;8838;50.144;8.176;2022-10-15T05:26:14;3.63;;;2.47;;
17441;SDS011;8838;50.144;8.176;2022-10-15T05:28:42;4.30;;;2.28;;
17441;SDS011;8838;50.144;8.176;2022-10-15T05:31:10;4.70;;;2.20;;
17441;SDS011;8838;50.144;8.176;2022-10-15T05:33:38;5.45;;;2.40;;
17441;SDS011;8838;50.144;8.176;2022-10-15T05:36:09;2.75;;;2.00;;
17441;SDS011;8838;50.144;8.176;2022-10-15T05:38:38;2.70;;;2.25;;
17441;SDS011;8838;50.144;8.176;2022-10-15T05:41:05;4.38;;;2.20;;
17441;SDS011;8838;50.144;8.176;2022-10-15T05:43:33;2.63;;;2.03;;
17441;SDS011;8838;50.144;8.176;2022-10-15T05:46:00;3.53;;;2.03;;
17441;SDS011;8838;50.144;8.176;2022-10-15T05:48:27;3.72;;;1.70;;
17441;SDS011;8838;50.144;8.176;2022-10-15T05:50:58;4.07;;;1.90;;
17441;SDS011;8838;50.144;8.176;2022-10-15T05:53:26;4.35;;;2.00;;
17441;SDS011;8838;50.144;8.176;2022-10-15T05:55:54;2.20;;;1.70;;
17441;SDS011;8838;50.144;8.176;2022-10-15T05:58:22;3.80;;;1.90;;
17441;SDS011;8838;50.144;8.176;2022-10-15T06:00:52;2.55;;;1.60;;
17441;SDS011;8838;50.144;8.176;2022-10-15T06:03:19;3.55;;;1.95;;
17441;SDS011;8838;50.144;8.176;2022-10-15T06:05:46;2.95;;;1.90;;
17441;SDS011;8838;50.144;8.176;2022-10-15T06:08:13;3.33;;;1.45;;
17441;SDS011;8838;50.144;8.176;2022-10-15T06:10:40;1.65;;;1.50;;
17441;SDS011;8838;50.144;8.176;2022-10-15T06:13:08;2.60;;;1.90;;
17441;SDS011;8838;50.144;8.176;2022-10-15T06:15:37;3.17;;;1.73;;
17441;SDS011;8838;50.144;8.176;2022-10-15T06:18:06;3.80;;;1.90;;
17441;SDS011;8838;50.144;8.176;2022-10-15T06:20:33;2.83;;;1.40;;
17441;SDS011;8838;50.144;8.176;2022-10-15T06:23:00;2.35;;;1.40;;
17441;SDS011;8838;50.144;8.176;2022-10-15T06:25:27;3.38;;;1.27;;
17441;SDS011;8838;50.144;8.176;2022-10-15T06:27:54;1.20;;;1.10;;
17441;SDS011;8838;50.144;8.176;2022-10-15T06:30:22;1.10;;;1.10;;
17441;SDS011;8838;50.144;8.176;2022-10-15T06:32:49;2.40;;;1.15;;
17441;SDS011;8838;50.144;8.176;2022-10-15T06:35:17;1.77;;;1.00;;
17441;SDS011;8838;50.144;8.176;2022-10-15T06:37:45;1.77;;;1.08;;
17441;SDS011;8838;50.144;8.176;2022-10-15T06:40:13;4.07;;;1.20;;
17441;SDS011;8838;50.144;8.176;2022-10-15T06:42:40;1.30;;;0.60;;
17441;SDS011;8838;50.144;8.176;2022-10-15T06:45:07;2.28;;;0.77;;
17441;SDS011;8838;50.144;8.176;2022-10-15T06:47:38;2.25;;;1.00;;
17441;SDS011;8838;50.144;8.176;2022-10-15T06:50:05;1.63;;;0.80;;
17441;SDS011;8838;50.144;8.176;2022-10-15T06:52:33;1.05;;;0.90;;
17441;SDS011;8838;50.144;8.176;2022-10-15T06:55:00;1.52;;;0.80;;
17441;SDS011;8838;50.144;8.176;2022-10-15T06:57:27;1.25;;;0.70;;
17441;SDS011;8838;50.144;8.176;2022-10-15T06:59:54;1.13;;;0.85;;
17441;SDS011;8838;50.144;8.176;2022-10-15T07:02:21;3.05;;;0.93;;
17441;SDS011;8838;50.144;8.176;2022-10-15T07:04:50;1.95;;;0.90;;
17441;SDS011;8838;50.144;8.176;2022-10-15T07:07:16;1.13;;;1.02;;
17441;SDS011;8838;50.144;8.176;2022-10-15T07:09:43;2.47;;;0.82;;
17441;SDS011;8838;50.144;8.176;2022-10-15T07:12:11;3.70;;;0.90;;
17441;SDS011;8838;50.144;8.176;2022-10-15T07:14:38;2.35;;;0.80;;
17441;SDS011;8838;50.144;8.176;2022-10-15T07:17:05;1.08;;;0.90;;
17441;SDS011;8838;50.144;8.176;2022-10-15T07:19:33;1.17;;;0.90;;
17441;SDS011;8838;50.144;8.176;2022-10-15T07:22:01;2.20;;;1.02;;
17441;SDS011;8838;50.144;8.176;2022-10-15T07:24:28;1.52;;;0.93;;
17441;SDS011;8838;50.144;8.176;2022-10-15T07:26:54;1.73;;;1.27;;
17441;SDS011;8838;50.144;8.176;2022-10-15T07:29:21;1.13;;;0.88;;
17441;SDS011;8838;50.144;8.176;2022-10-15T07:31:48;0.90;;;0.85;;
17441;SDS011;8838;50.144;8.176;2022-10-15T07:34:15;1.40;;;0.93;;
17441;SDS011;8838;50.144;8.176;2022-10-15T07:36:42;2.20;;;0.82;;
17441;SDS011;8838;50.144;8.176;2022-10-15T07:39:10;2.05;;;0.77;;
17441;SDS011;8838;50.144;8.176;2022-10-15T07:41:37;3.83;;;0.80;;
17441;SDS011;8838;50.144;8.176;2022-10-15T07:44:04;3.22;;;0.85;;
17441;SDS011;8838;50.144;8.176;2022-10-15T07:46:31;3.55;;;0.80;;
17441;SDS011;8838;50.144;8.176;2022-10-15T07:48:58;1.77;;;0.70;;
17441;SDS011;8838;50.144;8.176;2022-10-15T07:51:25;0.80;;;0.65;;
17441;SDS011;8838;50.144;8.176;2022-10-15T07:53:52;4.68;;;0.75;;
17441;SDS011;8838;50.144;8.176;2022-10-15T07:56:20;0.85;;;0.60;;
17441;SDS011;8838;50.144;8.176;2022-10-15T07:58:49;2.20;;;0.70;;
17441;SDS011;8838;50.144;8.176;2022-10-15T08:01:17;2.38;;;0.70;;
17441;SDS011;8838;50.144;8.176;2022-10-15T08:03:45;0.68;;;0.60;;
17441;SDS011;8838;50.144;8.176;2022-10-15T08:06:12;2.70;;;0.70;;
17441;SDS011;8838;50.144;8.176;2022-10-15T08:08:39;4.50;;;1.02;;
17441;SDS011;8838;50.144;8.176;2022-10-15T08:11:07;1.25;;;0.90;;
17441;SDS011;8838;50.144;8.176;2022-10-15T08:13:36;2.15;;;1.02;;
17441;SDS011;8838;50.144;8.176;2022-10-15T08:16:05;2.33;;;1.25;;
17441;SDS011;8838;50.144;8.176;2022-10-15T08:18:32;2.90;;;1.80;;
17441;SDS011;8838;50.144;8.176;2022-10-15T08:21:01;3.90;;;1.88;;
17441;SDS011;8838;50.144;8.176;2022-10-15T08:23:30;2.58;;;2.38;;
17441;SDS011;8838;50.144;8.176;2022-10-15T08:25:58;2.58;;;2.38;;
17441;SDS011;8838;50.144;8.176;2022-10-15T08:28:26;4.68;;;2.05;;
17441;SDS011;8838;50.144;8.176;2022-10-15T08:30:55;4.13;;;2.03;;
17441;SDS011;8838;50.144;8.176;2022-10-15T08:33:23;2.65;;;1.80;;
17441;SDS011;8838;50.144;8.176;2022-10-15T08:35:51;7.30;;;3.17;;
17441;SDS011;8838;50.144;8.176;2022-10-15T08:38:18;2.42;;;2.20;;
17441;SDS011;8838;50.144;8.176;2022-10-15T08:40:45;2.70;;;1.90;;
17441;SDS011;8838;50.144;8.176;2022-10-15T08:43:16;4.50;;;1.70;;
17441;SDS011;8838;50.144;8.176;2022-10-15T08:45:47;3.25;;;1.90;;
17441;SDS011;8838;50.144;8.176;2022-10-15T08:48:19;2.70;;;1.60;;
17441;SDS011;8838;50.144;8.176;2022-10-15T08:50:54;7.13;;;2.22;;
17441;SDS011;8838;50.144;8.176;2022-10-15T08:53:25;2.22;;;2.03;;
17441;SDS011;8838;50.144;8.176;2022-10-15T08:55:54;1.70;;;1.60;;
17441;SDS011;8838;50.144;8.176;2022-10-15T08:58:31;2.85;;;1.52;;
17441;SDS011;8838;50.144;8.176;2022-10-15T09:01:10;1.65;;;1.50;;
17441;SDS011;8838;50.144;8.176;2022-10-15T09:03:46;2.42;;;1.58;;
17441;SDS011;8838;50.144;8.176;2022-10-15T09:06:20;2.10;;;1.92;;
17441;SDS011;8838;50.144;8.176;2022-10-15T09:08:51;2.70;;;1.80;;
17441;SDS011;8838;50.144;8.176;2022-10-15T09:11:29;2.28;;;2.08;;
17441;SDS011;8838;50.144;8.176;2022-10-15T09:14:08;5.85;;;2.05;;
17441;SDS011;8838;50.144;8.176;2022-10-15T09:16:40;2.63;;;2.08;;
17441;SDS011;8838;50.144;8.176;2022-10-15T09:19:12;2.20;;;2.00;;
17441;SDS011;8838;50.144;8.176;2022-10-15T09:21:42;3.22;;;2.10;;
17441;SDS011;8838;50.144;8.176;2022-10-15T09:24:10;1.98;;;1.50;;
17441;SDS011;8838;50.144;8.176;2022-10-15T09:26:44;1.98;;;1.88;;
17441;SDS011;8838;50.144;8.176;2022-10-15T09:29:18;2.75;;;2.00;;
17441;SDS011;8838;50.144;8.176;2022-10-15T09:31:53;1.75;;;1.33;;
17441;SDS011;8838;50.144;8.176;2022-10-15T09:34:30;1.52;;;1.10;;
17441;SDS011;8838;50.144;8.176;2022-10-15T09:37:05;6.15;;;1.30;;
17441;SDS011;8838;50.144;8.176;2022-10-15T09:39:42;1.73;;;1.17;;
17441;SDS011;8838;50.144;8.176;2022-10-15T09:42:25;4.00;;;0.95;;
17441;SDS011;8838;50.144;8.176;2022-10-15T09:44:56;2.78;;;1.10;;
17441;SDS011;8838;50.144;8.176;2022-10-15T09:47:26;2.13;;;0.80;;
17441;SDS011;8838;50.144;8.176;2022-10-15T09:49:56;4.65;;;1.10;;
17441;SDS011;8838;50.144;8.176;2022-10-15T09:52:25;1.27;;;1.08;;
17441;SDS011;8838;50.144;8.176;2022-10-15T09:55:07;1.13;;;1.13;;
17441;SDS011;8838;50.144;8.176;2022-10-15T09:57:44;3.03;;;2.25;;
17441;SDS011;8838;50.144;8.176;2022-10-15T10:00:16;2.70;;;2.10;;
17441;SDS011;8838;50.144;8.176;2022-10-15T10:02:43;2.58;;;1.33;;
17441;SDS011;8838;50.144;8.176;2022-10-15T10:05:26;2.35;;;1.10;;
17441;SDS011;8838;50.144;8.176;2022-10-15T10:08:05;3.08;;;1.20;;
17441;SDS011;8838;50.144;8.176;2022-10-15T10:10:34;1.20;;;1.10;;
17441;SDS011;8838;50.144;8.176;2022-10-15T10:13:02;2.15;;;1.00;;
17441;SDS011;8838;50.144;8.176;2022-10-15T10:15:34;3.35;;;1.17;;
17441;SDS011;8838;50.144;8.176;2022-10-15T10:18:04;3.40;;;1.40;;
17441;SDS011;8838;50.144;8.176;2022-10-15T10:20:33;3.30;;;1.17;;
17441;SDS011;8838;50.144;8.176;2022-10-15T10:23:00;1.48;;;1.35;;
17441;SDS011;8838;50.144;8.176;2022-10-15T10:25:30;1.52;;;1.42;;
17441;SDS011;8838;50.144;8.176;2022-10-15T10:28:03;3.72;;;1.70;;
17441;SDS011;8838;50.144;8.176;2022-10-15T10:30:32;2.65;;;1.33;;
17441;SDS011;8838;50.144;8.176;2022-10-15T10:33:00;2.70;;;1.85;;
17441;SDS011;8838;50.144;8.176;2022-10-15T10:35:35;4.80;;;2.03;;
17441;SDS011;8838;50.144;8.176;2022-10-15T10:38:19;4.30;;;1.80;;
17441;SDS011;8838;50.144;8.176;2022-10-15T10:40:51;2.38;;;2.05;;
17441;SDS011;8838;50.144;8.176;2022-10-15T10:43:22;2.38;;;1.85;;
17441;SDS011;8838;50.144;8.176;2022-10-15T10:45:52;5.75;;;2.15;;
17441;SDS011;8838;50.144;8.176;2022-10-15T10:48:20;4.97;;;2.10;;
17441;SDS011;8838;50.144;8.176;2022-10-15T10:50:54;2.83;;;1.80;;
17441;SDS011;8838;50.144;8.176;2022-10-15T10:53:28;4.80;;;2.17;;
17441;SDS011;8838;50.144;8.176;2022-10-15T10:55:55;7.82;;;2.38;;
17441;SDS011;8838;50.144;8.176;2022-10-15T10:58:23;2.17;;;1.88;;
17441;SDS011;8838;50.144;8.176;2022-10-15T11:00:54;10.68;;;8.32;;
17441;SDS011;8838;50.144;8.176;2022-10-15T11:03:27;4.25;;;2.38;;
17441;SDS011;8838;50.144;8.176;2022-10-15T11:06:01;4.65;;;2.00;;
17441;SDS011;8838;50.144;8.176;2022-10-15T11:08:42;4.28;;;1.90;;
17441;SDS011;8838;50.144;8.176;2022-10-15T11:11:16;2.60;;;2.40;;
17441;SDS011;8838;50.144;8.176;2022-10-15T11:13:53;3.30;;;2.15;;
17441;SDS011;8838;50.144;8.176;2022-10-15T11:16:31;9.00;;;3.30;;
17441;SDS011;8838;50.144;8.176;2022-10-15T11:19:07;3.75;;;2.20;;
17441;SDS011;8838;50.144;8.176;2022-10-15T11:21:48;4.13;;;2.40;;
17441;SDS011;8838;50.144;8.176;2022-10-15T11:24:26;4.63;;;2.30;;
17441;SDS011;8838;50.144;8.176;2022-10-15T11:27:02;5.20;;;2.25;;
17441;SDS011;8838;50.144;8.176;2022-10-15T11:29:40;3.22;;;2.40;;
17441;SDS011;8838;50.144;8.176;2022-10-15T11:32:16;2.35;;;2.15;;
17441;SDS011;8838;50.144;8.176;2022-10-15T11:35:02;2.75;;;2.10;;
17441;SDS011;8838;50.144;8.176;2022-10-15T11:37:41;2.30;;;1.88;;
17441;SDS011;8838;50.144;8.176;2022-10-15T11:40:18;2.85;;;2.00;;
17441;SDS011;8838;50.144;8.176;2022-10-15T11:42:52;3.05;;;2.03;;
17441;SDS011;8838;50.144;8.176;2022-10-15T11:45:26;4.15;;;1.80;;
17441;SDS011;8838;50.144;8.176;2022-10-15T11:48:17;1.92;;;1.70;;
17441;SDS011;8838;50.144;8.176;2022-10-15T11:50:54;4.03;;;1.83;;
17441;SDS011;8838;50.144;8.176;2022-10-15T11:53:36;1.90;;;1.67;;
17441;SDS011;8838;50.144;8.176;2022-10-15T11:56:24;3.20;;;1.95;;
17441;SDS011;8838;50.144;8.176;2022-10-15T11:58:53;5.90;;;1.98;;
17441;SDS011;8838;50.144;8.176;2022-10-15T12:01:26;3.10;;;1.90;;
17441;SDS011;8838;50.144;8.176;2022-10-15T12:03:57;2.17;;;1.80;;
17441;SDS011;8838;50.144;8.176;2022-10-15T12:06:29;2.88;;;2.10;;
17441;SDS011;8838;50.144;8.176;2022-10-15T12:09:03;3.53;;;1.88;;
17441;SDS011;8838;50.144;8.176;2022-10-15T12:11:36;2.85;;;1.85;;
17441;SDS011;8838;50.144;8.176;2022-10-15T12:14:12;7.10;;;1.80;;
17441;SDS011;8838;50.144;8.176;2022-10-15T12:16:45;4.63;;;2.10;;
17441;SDS011;8838;50.144;8.176;2022-10-15T12:19:21;4.53;;;1.70;;
17441;SDS011;8838;50.144;8.176;2022-10-15T12:22:01;3.58;;;1.77;;
17441;SDS011;8838;50.144;8.176;2022-10-15T12:24:54;16.75;;;11.10;;
17441;SDS011;8838;50.144;8.176;2022-10-15T12:27:22;2.42;;;2.08;;
17441;SDS011;8838;50.144;8.176;2022-10-15T12:29:51;3.28;;;2.00;;
17441;SDS011;8838;50.144;8.176;2022-10-15T12:32:37;3.47;;;1.80;;
17441;SDS011;8838;50.144;8.176;2022-10-15T12:35:16;4.65;;;1.38;;
17441;SDS011;8838;50.144;8.176;2022-10-15T12:37:46;2.72;;;1.20;;
17441;SDS011;8838;50.144;8.176;2022-10-15T12:40:26;1.75;;;1.30;;
17441;SDS011;8838;50.144;8.176;2022-10-15T12:42:55;3.63;;;1.58;;
17441;SDS011;8838;50.144;8.176;2022-10-15T12:45:26;3.88;;;1.60;;
17441;SDS011;8838;50.144;8.176;2022-10-15T12:48:11;2.67;;;1.13;;
17441;SDS011;8838;50.144;8.176;2022-10-15T12:57:42;2.42;;;1.05;;
17441;SDS011;8838;50.144;8.176;2022-10-15T13:00:27;3.25;;;1.00;;
17441;SDS011;8838;50.144;8.176;2022-10-15T13:03:06;2.58;;;1.23;;
17441;SDS011;8838;50.144;8.176;2022-10-15T13:05:48;5.28;;;0.85;;
17441;SDS011;8838;50.144;8.176;2022-10-15T13:08:18;0.75;;;0.70;;
17441;SDS011;8838;50.144;8.176;2022-10-15T13:10:48;1.05;;;0.65;;
17441;SDS011;8838;50.144;8.176;2022-10-15T13:13:20;3.75;;;0.70;;
17441;SDS011;8838;50.144;8.176;2022-10-15T13:15:50;2.30;;;0.60;;
17441;SDS011;8838;50.144;8.176;2022-10-15T13:18:20;1.75;;;0.70;;
17441;SDS011;8838;50.144;8.176;2022-10-15T13:20:48;6.03;;;5.35;;
17441;SDS011;8838;50.144;8.176;2022-10-15T13:23:21;5.20;;;3.42;;
17441;SDS011;8838;50.144;8.176;2022-10-15T13:25:52;1.80;;;0.70;;
17441;SDS011;8838;50.144;8.176;2022-10-15T13:28:39;3.53;;;0.70;;
17441;SDS011;8838;50.144;8.176;2022-10-15T13:31:07;1.63;;;1.15;;
17441;SDS011;8838;50.144;8.176;2022-10-15T13:33:40;0.45;;;0.40;;
17441;SDS011;8838;50.144;8.176;2022-10-15T13:36:13;1.15;;;0.40;;
17441;SDS011;8838;50.144;8.176;2022-10-15T13:38:47;3.22;;;0.40;;
17441;SDS011;8838;50.144;8.176;2022-10-15T13:41:22;0.80;;;0.30;;
17441;SDS011;8838;50.144;8.176;2022-10-15T13:43:52;0.40;;;0.40;;
17441;SDS011;8838;50.144;8.176;2022-10-15T13:46:23;0.75;;;0.40;;
17441;SDS011;8838;50.144;8.176;2022-10-15T13:48:55;0.40;;;0.40;;
17441;SDS011;8838;50.144;8.176;2022-10-15T13:51:24;1.08;;;0.45;;
17441;SDS011;8838;50.144;8.176;2022-10-15T13:53:58;0.50;;;0.40;;
17441;SDS011;8838;50.144;8.176;2022-10-15T13:56:27;1.98;;;0.40;;
17441;SDS011;8838;50.144;8.176;2022-10-15T13:58:57;0.30;;;0.30;;
17441;SDS011;8838;50.144;8.176;2022-10-15T14:01:26;2.15;;;0.50;;
17441;SDS011;8838;50.144;8.176;2022-10-15T14:03:55;2.45;;;0.35;;
17441;SDS011;8838;50.144;8.176;2022-10-15T14:06:23;3.50;;;0.30;;
17441;SDS011;8838;50.144;8.176;2022-10-15T14:08:52;2.22;;;0.30;;
17441;SDS011;8838;50.144;8.176;2022-10-15T14:11:20;2.20;;;0.30;;
17441;SDS011;8838;50.144;8.176;2022-10-15T14:13:48;2.50;;;0.30;;
17441;SDS011;8838;50.144;8.176;2022-10-15T14:16:19;0.30;;;0.30;;
17441;SDS011;8838;50.144;8.176;2022-10-15T14:18:49;1.00;;;0.40;;
17441;SDS011;8838;50.144;8.176;2022-10-15T14:21:19;0.85;;;0.40;;
17441;SDS011;8838;50.144;8.176;2022-10-15T14:23:59;1.23;;;0.30;;
17441;SDS011;8838;50.144;8.176;2022-10-15T14:26:29;0.30;;;0.30;;
17441;SDS011;8838;50.144;8.176;2022-10-15T14:28:58;0.20;;;0.20;;
17441;SDS011;8838;50.144;8.176;2022-10-15T14:31:31;1.25;;;0.22;;
17441;SDS011;8838;50.144;8.176;2022-10-15T14:34:02;0.93;;;0.30;;
17441;SDS011;8838;50.144;8.176;2022-10-15T14:36:29;4.38;;;0.30;;
17441;SDS011;8838;50.144;8.176;2022-10-15T14:41:56;0.50;;;0.22;;
17441;SDS011;8838;50.144;8.176;2022-10-15T14:44:24;1.40;;;0.32;;
17441;SDS011;8838;50.144;8.176;2022-10-15T14:46:59;2.33;;;0.30;;
17441;SDS011;8838;50.144;8.176;2022-10-15T14:49:29;0.85;;;0.30;;
17441;SDS011;8838;50.144;8.176;2022-10-15T14:51:59;1.75;;;0.30;;
17441;SDS011;8838;50.144;8.176;2022-10-15T14:54:31;0.65;;;0.30;;
17441;SDS011;8838;50.144;8.176;2022-10-15T14:57:01;1.45;;;0.17;;
17441;SDS011;8838;50.144;8.176;2022-10-15T14:59:30;0.30;;;0.30;;
17441;SDS011;8838;50.144;8.176;2022-10-15T15:02:03;0.20;;;0.20;;
17441;SDS011;8838;50.144;8.176;2022-10-15T15:04:39;3.10;;;0.30;;
17441;SDS011;8838;50.144;8.176;2022-10-15T15:07:15;7.60;;;0.52;;
17441;SDS011;8838;50.144;8.176;2022-10-15T15:09:47;2.42;;;0.65;;
17441;SDS011;8838;50.144;8.176;2022-10-15T15:12:16;0.30;;;0.30;;
17441;SDS011;8838;50.144;8.176;2022-10-15T15:14:45;2.45;;;0.30;;
17441;SDS011;8838;50.144;8.176;2022-10-15T15:17:14;0.38;;;0.30;;
17441;SDS011;8838;50.144;8.176;2022-10-15T15:19:43;1.38;;;0.32;;
17441;SDS011;8838;50.144;8.176;2022-10-15T15:22:10;2.15;;;0.40;;
17441;SDS011;8838;50.144;8.176;2022-10-15T15:24:40;4.03;;;0.40;;
17441;SDS011;8838;50.144;8.176;2022-10-15T15:27:09;1.55;;;0.35;;
17441;SDS011;8838;50.144;8.176;2022-10-15T15:29:48;1.52;;;0.32;;
17441;SDS011;8838;50.144;8.176;2022-10-15T15:32:17;1.98;;;0.40;;
17441;SDS011;8838;50.144;8.176;2022-10-15T15:34:44;1.23;;;0.30;;